Time;durP1;ratioP1;P1;durP2;ratioP2;P2;SDS_P1;SDS_P2;PMS_P1;PMS_P2;Temp;Humidity;BMP_temperature;BMP_pressure;BME280_temperature;BME280_humidity;BME280_pressure;Samples;Min_cycle;Max_cycle;Signal;HPM_P1;HPM_P2
2022/05/07 00:03:04;;;;;;;9.05;7.10;;;;;;;12.33;64.16;96442.34;10335237;28;99510;-69
2022/05/07 00:08:07;;;;;;;8.20;6.60;;;;;;;12.33;64.15;96437.09;10343618;28;98712;-68
2022/05/07 00:13:10;;;;;;;11.23;7.88;;;;;;;12.31;64.03;96443.31;10347801;28;99440;-68
2022/05/07 00:18:14;;;;;;;9.50;7.40;;;;;;;12.30;64.20;96440.84;10338223;28;101160;-69
2022/05/07 00:23:18;;;;;;;12.53;8.20;;;;;;;12.23;64.38;96442.44;10347734;28;96827;-68
2022/05/07 00:28:21;;;;;;;10.45;7.97;;;;;;;12.16;64.50;96433.53;10348538;28;97692;-68
2022/05/07 00:33:25;;;;;;;10.82;8.27;;;;;;;12.08;65.13;96432.50;10354815;28;96822;-69
2022/05/07 00:38:28;;;;;;;11.40;9.27;;;;;;;12.01;65.43;96426.25;10350790;28;100774;-70
2022/05/07 00:43:41;;;;;;;13.10;9.48;;;;;;;11.94;65.87;96427.84;10350908;28;98942;-68
2022/05/07 00:48:45;;;;;;;11.82;8.82;;;;;;;11.91;66.04;96428.13;10348122;28;97776;-71
2022/05/07 00:53:48;;;;;;;12.43;9.63;;;;;;;11.88;66.10;96417.94;10349482;28;98726;-68
2022/05/07 00:58:52;;;;;;;10.93;8.20;;;;;;;11.88;66.55;96420.56;10341923;28;98837;-69
2022/05/07 01:03:57;;;;;;;10.38;8.40;;;;;;;11.95;66.76;96413.75;10346686;28;97753;-68
2022/05/07 01:09:00;;;;;;;12.20;9.65;;;;;;;12.02;66.85;96409.53;10335272;28;97433;-68
2022/05/07 01:14:03;;;;;;;12.10;9.40;;;;;;;12.06;66.66;96405.66;10349037;28;97300;-68
2022/05/07 01:19:07;;;;;;;12.07;8.70;;;;;;;12.10;66.53;96407.00;10341407;28;97370;-68
2022/05/07 01:24:11;;;;;;;11.37;9.17;;;;;;;12.11;66.62;96398.19;10345501;28;97727;-68
2022/05/07 01:29:14;;;;;;;12.77;8.63;;;;;;;12.09;66.91;96400.13;10340119;28;97523;-68
2022/05/07 01:34:17;;;;;;;12.05;9.45;;;;;;;12.08;66.96;96388.00;10344577;28;97165;-69
2022/05/07 01:39:21;;;;;;;12.30;9.73;;;;;;;12.06;66.87;96374.25;10341536;28;99435;-73
2022/05/07 01:44:25;;;;;;;11.73;8.70;;;;;;;12.08;66.78;96371.47;10342484;28;97787;-68
2022/05/07 01:49:28;;;;;;;9.85;8.07;;;;;;;12.00;66.51;96353.09;10350868;28;102403;-69
2022/05/07 01:54:32;;;;;;;11.35;7.80;;;;;;;11.97;66.16;96364.69;10348979;28;97706;-68
2022/05/07 01:59:35;;;;;;;9.50;7.67;;;;;;;11.97;65.76;96359.47;10347472;28;97047;-68
2022/05/07 02:04:39;;;;;;;9.15;7.30;;;;;;;11.96;65.27;96368.28;10360215;28;98321;-68
2022/05/07 02:09:43;;;;;;;8.50;7.28;;;;;;;11.96;65.19;96368.28;10357755;28;99746;-68
2022/05/07 02:14:46;;;;;;;7.80;6.77;;;;;;;11.95;65.01;96376.28;10345055;28;97621;-70
2022/05/07 02:19:48;;;;;;;10.15;7.15;;;;;;;11.89;65.51;96368.06;10355459;28;98917;-68
2022/05/07 02:24:53;;;;;;;9.45;7.10;;;;;;;11.83;65.28;96365.22;10346887;28;97066;-68
2022/05/07 02:29:55;;;;;;;8.10;7.30;;;;;;;11.76;65.69;96366.81;10357036;28;96966;-68
2022/05/07 02:34:59;;;;;;;8.52;6.53;;;;;;;11.69;65.67;96377.06;10356797;28;97262;-68
2022/05/07 02:40:04;;;;;;;9.30;7.13;;;;;;;11.63;65.49;96362.78;10356432;28;97518;-68
2022/05/07 02:45:07;;;;;;;;;;;;;;;11.59;65.70;96371.09;10354473;28;96848;-68
2022/05/07 02:50:11;;;;;;;7.90;6.85;;;;;;;11.45;65.71;96370.66;10352544;28;97072;-68
2022/05/07 02:55:17;;;;;;;9.45;8.40;;;;;;;11.36;66.30;96371.53;10352064;28;100333;-69
2022/05/07 03:00:20;;;;;;;11.20;8.13;;;;;;;11.29;66.50;96375.69;10353246;28;96891;-67
2022/05/07 03:05:23;;;;;;;8.30;7.13;;;;;;;11.25;66.55;96366.53;10354401;28;98601;-68
2022/05/07 03:10:27;;;;;;;11.20;8.55;;;;;;;11.17;66.89;96357.63;10353080;28;96786;-68
2022/05/07 03:15:30;;;;;;;11.40;8.07;;;;;;;11.15;67.00;96358.72;10359739;28;96987;-68
2022/05/07 03:20:33;;;;;;;8.73;7.13;;;;;;;11.07;66.64;96348.19;10336881;28;97809;-68
2022/05/07 03:25:37;;;;;;;8.88;7.88;;;;;;;10.99;67.23;96351.53;10345588;28;100436;-71
2022/05/07 03:30:40;;;;;;;9.97;7.67;;;;;;;10.88;67.47;96346.53;10350017;28;97460;-67
2022/05/07 03:35:43;;;;;;;8.75;7.70;;;;;;;10.74;67.87;96345.25;10343262;28;100322;-68
2022/05/07 03:40:48;;;;;;;9.95;7.47;;;;;;;10.64;67.69;96345.28;10348591;28;98659;-69
2022/05/07 03:45:51;;;;;;;12.40;9.20;;;;;;;10.47;68.28;96341.66;10355773;28;98459;-68
2022/05/07 03:50:54;;;;;;;10.90;8.40;;;;;;;10.29;69.90;96351.19;10351384;28;98977;-68
2022/05/07 03:55:59;;;;;;;10.40;9.02;;;;;;;10.17;69.95;96354.00;10354014;28;100426;-67
2022/05/07 04:01:01;;;;;;;9.07;8.15;;;;;;;10.07;69.83;96347.97;10351602;28;97178;-67
2022/05/07 04:06:04;;;;;;;12.10;10.13;;;;;;;10.03;69.96;96349.25;10360186;28;97094;-70
2022/05/07 04:11:09;;;;;;;11.52;10.27;;;;;;;9.93;70.64;96348.44;10347537;28;97245;-71
2022/05/07 04:16:11;;;;;;;10.13;8.23;;;;;;;9.82;70.67;96350.25;10358461;28;98949;-67
2022/05/07 04:21:14;;;;;;;12.40;9.35;;;;;;;9.64;71.14;96351.91;10353951;28;98630;-68
2022/05/07 04:26:18;;;;;;;9.40;7.90;;;;;;;9.58;71.26;96358.50;10356817;28;98223;-68
2022/05/07 04:31:21;;;;;;;9.00;7.63;;;;;;;9.50;70.77;96368.81;10358478;28;98594;-67
2022/05/07 04:36:30;;;;;;;8.75;6.75;;;;;;;9.47;70.74;96362.09;10356873;28;97441;-67
2022/05/07 04:41:34;;;;;;;9.35;7.97;;;;;;;9.51;70.54;96361.81;10357052;28;99042;-68
2022/05/07 04:46:37;;;;;;;12.23;8.90;;;;;;;9.36;71.36;96372.59;10359466;28;97691;-68
2022/05/07 04:51:40;;;;;;;10.25;8.43;;;;;;;9.20;71.74;96369.72;10358033;28;98770;-67
2022/05/07 04:56:44;;;;;;;9.57;8.05;;;;;;;9.20;72.10;96380.16;10359974;28;98632;-68
2022/05/07 05:01:48;;;;;;;10.50;9.10;;;;;;;9.24;72.50;96387.56;10359705;28;98000;-68
2022/05/07 05:06:51;;;;;;;11.20;8.88;;;;;;;9.27;72.29;96391.69;10359978;28;98919;-68
2022/05/07 05:11:55;;;;;;;11.52;8.38;;;;;;;9.33;72.58;96385.91;10357291;28;98851;-67
2022/05/07 05:16:58;;;;;;;8.88;7.25;;;;;;;9.48;71.70;96389.78;10358213;28;97659;-74
2022/05/07 05:22:01;;;;;;;9.13;6.97;;;;;;;9.62;71.47;96390.34;10359516;28;97062;-67
2022/05/07 05:27:05;;;;;;;10.48;7.82;;;;;;;9.77;70.82;96398.59;10358387;28;97782;-68
2022/05/07 05:32:09;;;;;;;9.27;7.68;;;;;;;9.92;70.64;96393.75;10356799;28;99013;-67
2022/05/07 05:37:12;;;;;;;12.82;9.75;;;;;;;10.02;70.82;96397.97;10357357;28;97781;-67
2022/05/07 05:42:16;;;;;;;13.23;10.15;;;;;;;10.17;70.96;96397.56;10349460;28;97670;-68
2022/05/07 05:47:20;;;;;;;14.00;11.88;;;;;;;10.34;71.10;96395.97;10351799;28;97611;-73
2022/05/07 05:52:23;;;;;;;15.75;13.20;;;;;;;10.58;71.80;96404.16;10341719;28;97698;-68
2022/05/07 05:57:28;;;;;;;15.30;12.43;;;;;;;10.75;71.58;96399.94;10346497;28;99251;-71
2022/05/07 06:02:30;;;;;;;16.87;13.17;;;;;;;10.97;71.96;96414.44;10349558;28;98550;-71
2022/05/07 06:07:33;;;;;;;16.33;13.23;;;;;;;11.25;71.66;96411.78;10355709;28;97307;-68
2022/05/07 06:12:37;;;;;;;16.83;13.95;;;;;;;11.48;71.35;96409.59;10356284;28;97613;-67
2022/05/07 06:17:40;;;;;;;17.10;13.63;;;;;;;11.64;71.35;96401.09;10355377;28;96882;-67
2022/05/07 06:22:43;;;;;;;18.65;13.52;;;;;;;11.91;71.07;96407.19;10356337;28;98930;-70
2022/05/07 06:27:47;;;;;;;15.07;11.63;;;;;;;12.28;70.75;96403.50;10342509;28;99140;-68
2022/05/07 06:32:51;;;;;;;13.82;12.07;;;;;;;12.54;70.38;96402.69;10339163;28;98269;-68
2022/05/07 06:37:54;;;;;;;14.73;12.20;;;;;;;12.71;69.25;96399.16;10345477;28;99103;-67
2022/05/07 06:42:58;;;;;;;14.07;10.68;;;;;;;12.73;69.41;96410.28;10347007;28;98173;-68
2022/05/07 06:48:03;;;;;;;13.77;11.53;;;;;;;12.75;69.25;96407.53;10349465;28;98141;-68
2022/05/07 06:53:06;;;;;;;;;;;;;;;12.74;69.01;96404.09;10345895;28;97230;-68
2022/05/07 06:58:11;;;;;;;13.50;11.20;;;;;;;12.50;69.19;96397.75;10355681;28;97109;-67
2022/05/07 07:03:26;;;;;;;13.05;10.82;;;;;;;12.48;68.95;96397.06;10349190;28;96848;-68
2022/05/07 07:08:29;;;;;;;13.55;11.10;;;;;;;12.55;68.86;96402.53;10348774;28;97702;-69
2022/05/07 07:13:34;;;;;;;13.65;11.35;;;;;;;12.62;68.44;96400.09;10357573;28;96844;-67
2022/05/07 07:18:37;;;;;;;12.37;10.67;;;;;;;12.80;68.54;96392.97;10353283;28;98949;-68
2022/05/07 07:23:40;;;;;;;13.00;10.63;;;;;;;12.95;67.98;96392.41;10352009;28;97644;-67
2022/05/07 07:28:45;;;;;;;13.43;10.38;;;;;;;13.12;67.50;96391.47;10344156;28;99372;-68
2022/05/07 07:33:48;;;;;;;;;;;;;;;13.28;67.21;96395.13;10345360;28;97887;-67
2022/05/07 07:38:51;;;;;;;14.27;10.93;;;;;;;13.47;67.03;96397.44;10345463;28;97576;-68
2022/05/07 07:43:55;;;;;;;12.30;10.35;;;;;;;13.52;66.50;96392.53;10347586;28;102108;-68
2022/05/07 07:48:58;;;;;;;12.70;10.50;;;;;;;13.70;65.44;96397.63;10354629;28;100495;-67
2022/05/07 07:54:01;;;;;;;11.80;10.15;;;;;;;13.87;66.14;96390.59;10351710;28;97392;-68
2022/05/07 07:59:05;;;;;;;13.98;10.23;;;;;;;14.01;65.02;96399.59;10353764;28;100254;-68
2022/05/07 08:04:09;;;;;;;;;;;;;;;14.19;65.25;96402.03;10357073;28;97170;-69
2022/05/07 08:14:34;;;;;;;14.05;9.90;;;;;;;14.28;64.20;96393.19;10357031;28;97173;-68
2022/05/07 08:19:44;;;;;;;11.15;9.00;;;;;;;14.40;63.76;96390.22;10361560;28;98611;-67
2022/05/07 08:24:47;;;;;;;11.60;9.57;;;;;;;14.48;64.11;96379.69;10357647;28;98525;-68
2022/05/07 08:29:56;;;;;;;11.50;8.55;;;;;;;14.61;63.33;96377.38;10350675;28;98942;-67
2022/05/07 08:34:59;;;;;;;10.43;8.77;;;;;;;14.66;63.23;96384.72;10351698;28;97009;-67
2022/05/07 08:40:03;;;;;;;11.98;8.90;;;;;;;14.71;63.36;96377.97;10343067;28;98178;-68
2022/05/07 08:45:08;;;;;;;13.80;9.27;;;;;;;14.76;62.94;96380.09;10345367;28;96894;-68
2022/05/07 08:50:13;;;;;;;8.98;8.02;;;;;;;14.83;62.84;96393.38;10350983;28;96890;-67
2022/05/07 08:55:16;;;;;;;;;;;;;;;14.79;62.57;96394.72;10355368;28;98716;-67
2022/05/07 09:00:22;;;;;;;12.18;8.25;;;;;;;14.80;62.76;96388.44;10345715;28;96974;-63
2022/05/07 09:05:33;;;;;;;9.98;8.20;;;;;;;15.19;60.65;96390.25;10349756;28;97176;-62
2022/05/07 09:10:37;;;;;;;10.30;8.38;;;;;;;15.05;61.37;96384.72;10341767;28;98327;-66
2022/05/07 09:15:52;;;;;;;10.48;8.00;;;;;;;15.08;61.42;96389.66;10340381;28;97617;-66
2022/05/07 09:21:15;;;;;;;10.05;7.88;;;;;;;15.21;61.33;96381.19;10350509;28;98833;-66
2022/05/07 09:26:26;;;;;;;11.02;7.70;;;;;;;15.30;60.82;96377.53;10346771;28;97637;-66
2022/05/07 09:31:31;;;;;;;8.68;6.80;;;;;;;15.45;60.87;96369.69;10346522;28;98584;-66
2022/05/07 09:36:34;;;;;;;7.85;7.05;;;;;;;15.58;60.41;96378.81;10350010;28;99040;-66
2022/05/07 09:41:38;;;;;;;9.48;6.93;;;;;;;15.68;59.28;96376.81;10346917;28;101603;-66
2022/05/07 09:46:42;;;;;;;8.63;6.00;;;;;;;15.61;58.40;96371.41;10345652;28;96941;-66
2022/05/07 09:51:46;;;;;;;7.13;6.00;;;;;;;15.65;58.39;96363.97;10340320;28;99494;-66
2022/05/07 10:02:33;;;;;;;6.72;6.03;;;;;;;15.83;57.50;96353.97;10344396;28;97164;-66
2022/05/07 10:07:59;;;;;;;6.57;5.10;;;;;;;16.04;57.32;96348.00;10341054;28;97284;-66
2022/05/07 10:13:05;;;;;;;5.63;4.60;;;;;;;16.08;56.96;96342.38;10343135;28;97771;-66
2022/05/07 10:18:14;;;;;;;8.68;4.38;;;;;;;16.05;56.13;96343.56;10337972;28;96766;-66
2022/05/07 10:23:28;;;;;;;5.68;4.13;;;;;;;16.15;55.95;96338.03;10350876;28;97057;-66
2022/05/07 10:28:38;;;;;;;4.72;4.22;;;;;;;16.28;55.40;96343.50;10340002;28;97050;-66
2022/05/07 10:33:46;;;;;;;5.43;4.35;;;;;;;16.42;55.52;96340.06;10344532;28;96819;-66
2022/05/07 10:38:50;;;;;;;4.75;4.30;;;;;;;16.54;54.85;96334.34;10341333;28;96851;-65
2022/05/07 10:44:05;;;;;;;;;;;;;;;16.80;55.27;96334.69;10345037;28;97480;-68
2022/05/07 10:49:09;;;;;;;5.00;4.50;;;;;;;16.97;54.59;96321.28;10354672;28;96893;-68
2022/05/07 10:54:19;;;;;;;5.75;4.57;;;;;;;17.00;53.43;96321.75;10340877;28;96846;-68
2022/05/07 10:59:23;;;;;;;4.60;4.20;;;;;;;17.11;53.66;96296.69;10363207;28;96871;-68
2022/05/07 11:04:28;;;;;;;6.63;4.03;;;;;;;17.28;52.63;96313.06;10333818;28;97099;-68
2022/05/07 11:09:31;;;;;;;3.88;3.30;;;;;;;17.42;52.53;96310.56;10339235;28;97806;-68
2022/05/07 11:14:35;;;;;;;4.82;3.85;;;;;;;17.50;52.54;96302.53;10338158;28;96901;-68
2022/05/07 11:19:40;;;;;;;;;;;;;;;17.44;52.09;96290.91;10333471;28;98624;-68
2022/05/07 11:24:43;;;;;;;6.90;3.70;;;;;;;17.44;51.47;96300.63;10340580;28;97093;-68
2022/05/07 11:29:46;;;;;;;5.03;4.10;;;;;;;17.62;51.78;96293.06;10350477;28;96848;-68
2022/05/07 11:34:57;;;;;;;6.47;3.85;;;;;;;17.60;50.99;96300.38;10342245;28;96705;-68
2022/05/07 11:40:00;;;;;;;4.28;3.88;;;;;;;17.74;51.35;96278.34;10341876;28;96939;-68
2022/05/07 11:50:39;;;;;;;4.57;3.97;;;;;;;18.18;49.83;96294.13;10340545;28;97529;-68
2022/05/07 11:55:43;;;;;;;9.02;3.80;;;;;;;18.29;49.42;96277.69;10340047;28;97019;-68
2022/05/07 12:00:47;;;;;;;;;;;;;;;18.47;50.87;96272.72;10340150;28;97182;-68
2022/05/07 12:05:54;;;;;;;4.10;3.67;;;;;;;18.49;50.05;96281.25;10340867;28;96969;-68
2022/05/07 12:10:58;;;;;;;4.63;3.35;;;;;;;18.72;49.56;96277.50;10340392;28;97092;-68
2022/05/07 12:29:48;;;;;;;3.60;3.30;;;;;;;18.94;50.33;96278.22;10340525;28;97201;-68
2022/05/07 12:32:07;;;;;;;3.83;3.42;;;;;;;19.50;47.54;96257.72;10341445;28;96844;-68
2022/05/07 12:37:12;;;;;;;5.90;3.63;;;;;;;19.45;47.92;96263.63;10355331;28;97962;-68
2022/05/07 12:42:16;;;;;;;4.43;3.70;;;;;;;19.79;46.34;96264.47;10342470;28;98599;-68
2022/05/07 12:47:19;;;;;;;5.93;3.42;;;;;;;20.06;46.61;96273.22;10339530;28;97102;-68
2022/05/07 12:52:23;;;;;;;4.47;3.95;;;;;;;20.30;47.48;96258.47;10335932;28;96936;-68
2022/05/07 12:57:26;;;;;;;7.10;4.00;;;;;;;20.70;46.02;96247.72;10339706;28;96731;-68
2022/05/07 13:02:31;;;;;;;7.43;4.10;;;;;;;21.07;45.97;96252.47;10338791;28;96737;-68
2022/05/07 13:07:35;;;;;;;4.20;3.78;;;;;;;20.98;45.52;96246.59;10340647;28;97506;-68
2022/05/07 13:12:39;;;;;;;4.38;3.50;;;;;;;21.17;45.86;96236.84;10345939;28;98178;-68
2022/05/07 13:17:42;;;;;;;5.00;4.07;;;;;;;21.39;44.42;96237.31;10338703;28;97476;-68
2022/05/07 13:22:46;;;;;;;6.55;4.32;;;;;;;21.27;44.41;96220.44;10336610;28;96925;-68
2022/05/07 13:27:50;;;;;;;4.72;4.15;;;;;;;21.50;45.01;96218.03;10343059;28;97477;-68
2022/05/07 13:32:52;;;;;;;6.80;5.40;;;;;;;21.50;44.71;96228.66;10337491;28;97038;-68
2022/05/07 13:37:56;;;;;;;5.93;4.80;;;;;;;21.38;44.68;96209.13;10336473;28;97006;-68
2022/05/07 13:43:02;;;;;;;;;;;;;;;21.36;45.19;96219.13;10340152;28;97078;-68
2022/05/07 13:48:06;;;;;;;4.40;4.00;;;;;;;21.36;43.67;96208.50;10345324;28;99407;-70
2022/05/07 13:53:11;;;;;;;4.38;3.78;;;;;;;21.25;43.80;96206.56;10344223;28;98514;-70
2022/05/07 13:58:14;;;;;;;5.07;3.53;;;;;;;21.09;42.61;96186.66;10361084;28;97468;-70
2022/05/07 14:03:17;;;;;;;4.22;3.83;;;;;;;20.73;41.92;96193.38;10345962;28;98686;-70
2022/05/07 14:08:21;;;;;;;4.90;3.93;;;;;;;20.49;43.16;96200.25;10350043;28;99222;-69
2022/05/07 14:13:24;;;;;;;;;;;;;;;21.24;42.83;96194.31;10340829;28;99073;-69
2022/05/07 14:18:27;;;;;;;5.32;4.22;;;;;;;21.34;42.48;96184.00;10345712;28;97010;-70
2022/05/07 14:23:32;;;;;;;5.22;4.25;;;;;;;21.48;43.07;96185.53;10340432;28;98595;-70
2022/05/07 14:28:35;;;;;;;4.68;4.25;;;;;;;22.27;41.52;96181.50;10341820;28;97257;-70
2022/05/07 14:33:37;;;;;;;4.93;4.45;;;;;;;22.24;41.43;96177.44;10350997;28;97511;-70
2022/05/07 14:39:03;;;;;;;5.23;4.67;;;;;;;22.04;41.88;96177.66;10336311;28;97158;-70
2022/05/07 14:44:06;;;;;;;5.32;4.82;;;;;;;21.72;41.91;96177.78;10336339;28;98872;-70
2022/05/07 14:49:10;;;;;;;5.00;4.45;;;;;;;21.08;43.19;96175.22;10356123;28;96721;-70
2022/05/07 14:54:14;;;;;;;6.10;4.20;;;;;;;21.16;43.61;96160.06;10345519;28;96876;-70
2022/05/07 14:59:17;;;;;;;6.88;4.72;;;;;;;21.95;42.37;96157.69;10360391;28;97706;-70
2022/05/07 15:04:20;;;;;;;5.85;5.25;;;;;;;21.91;41.93;96169.81;10363591;28;96927;-70
2022/05/07 15:14:53;;;;;;;6.00;4.05;;;;;;;21.67;42.31;96178.44;10288359;28;100995;-70
2022/05/07 15:19:56;;;;;;;5.07;4.57;;;;;;;21.36;42.10;96166.00;10299545;28;97031;-70
2022/05/07 15:25:01;;;;;;;5.70;5.03;;;;;;;20.77;42.96;96160.09;10269487;28;98704;-70
2022/05/07 15:30:04;;;;;;;6.05;5.05;;;;;;;20.51;43.29;96169.84;10265602;28;98659;-69
2022/05/07 15:40:29;;;;;;;6.80;4.93;;;;;;;20.07;43.75;96168.78;10274860;28;96811;-69
2022/05/07 15:45:32;;;;;;;;;;;;;;;19.72;44.00;96160.28;10271722;28;97731;-69
2022/05/07 15:50:37;;;;;;;5.22;4.45;;;;;;;19.30;43.63;96167.66;10317285;28;99079;-70
2022/05/07 15:55:43;;;;;;;5.35;4.63;;;;;;;19.01;44.92;96172.34;10345445;28;96984;-69
2022/05/07 16:01:06;;;;;;;5.40;4.40;;;;;;;18.62;45.47;96176.50;10344833;28;97006;-69
2022/05/07 16:06:11;;;;;;;6.00;4.47;;;;;;;18.58;45.99;96185.88;10332441;28;97690;-70
2022/05/07 16:11:15;;;;;;;;;;;;;;;18.67;45.90;96179.38;10348512;28;96942;-69
2022/05/07 16:16:25;;;;;;;5.07;4.53;;;;;;;18.81;46.93;96167.81;10363277;28;96853;-69
2022/05/07 16:21:29;;;;;;;5.77;5.17;;;;;;;18.85;46.12;96176.97;10342165;28;99432;-69
2022/05/07 16:26:34;;;;;;;5.88;5.38;;;;;;;18.77;46.92;96173.69;10341290;28;102032;-69
2022/05/07 16:31:37;;;;;;;5.75;5.18;;;;;;;18.64;47.74;96155.97;10342155;28;99155;-69
2022/05/07 16:36:41;;;;;;;5.65;4.75;;;;;;;18.64;46.88;96163.91;10343335;28;97322;-69
2022/05/07 16:41:45;;;;;;;8.73;5.82;;;;;;;18.69;46.93;96164.13;10334240;28;99193;-69
2022/05/07 16:46:48;;;;;;;7.72;5.53;;;;;;;18.57;47.63;96163.91;10344265;28;97606;-69
2022/05/07 16:51:51;;;;;;;6.25;4.65;;;;;;;18.54;48.08;96163.47;10348014;28;97185;-69
2022/05/07 16:56:57;;;;;;;5.97;4.75;;;;;;;18.58;48.48;96164.69;10355646;28;98626;-69
2022/05/07 17:02:00;;;;;;;5.75;5.00;;;;;;;18.52;47.92;96160.22;10350833;28;99180;-69
2022/05/07 17:07:04;;;;;;;5.57;5.07;;;;;;;18.42;47.93;96166.69;10361514;28;98299;-69
2022/05/07 17:12:11;;;;;;;5.20;4.70;;;;;;;18.46;47.95;96167.94;10361392;28;96814;-69
2022/05/07 17:17:13;;;;;;;6.68;4.57;;;;;;;18.57;46.67;96163.06;10350579;28;97370;-69
2022/05/07 17:22:16;;;;;;;4.40;4.00;;;;;;;19.19;45.12;96169.91;10355075;28;97080;-69
2022/05/07 17:27:23;;;;;;;4.68;4.28;;;;;;;19.97;43.24;96169.22;10342758;28;96987;-69
2022/05/07 17:32:26;;;;;;;5.97;4.15;;;;;;;20.19;43.03;96163.63;10356471;28;101137;-69
2022/05/07 17:37:29;;;;;;;4.57;4.17;;;;;;;19.83;43.83;96166.81;10362582;28;96789;-69
2022/05/07 17:42:33;;;;;;;4.22;3.83;;;;;;;19.58;43.93;96173.56;10364187;28;98084;-69
2022/05/07 17:47:36;;;;;;;12.57;9.82;;;;;;;19.18;44.67;96176.22;10369758;28;97036;-68
2022/05/07 17:52:39;;;;;;;5.10;4.53;;;;;;;18.61;44.28;96185.47;10366474;28;97003;-67
2022/05/07 17:57:43;;;;;;;6.78;4.47;;;;;;;18.37;44.62;96184.16;10354528;28;99200;-67
2022/05/07 18:02:46;;;;;;;5.07;3.70;;;;;;;18.24;45.12;96177.00;10354896;28;97066;-69
2022/05/07 18:07:49;;;;;;;6.45;3.80;;;;;;;17.98;45.73;96186.44;10363065;28;96778;-69
2022/05/07 18:12:54;;;;;;;4.60;4.10;;;;;;;17.79;46.12;96192.38;10367597;28;100395;-69
2022/05/07 18:17:58;;;;;;;6.63;4.18;;;;;;;17.60;46.40;96199.19;10367660;28;97232;-69
2022/05/07 18:23:02;;;;;;;7.13;3.90;;;;;;;17.52;46.32;96197.50;10367907;28;97120;-69
2022/05/07 18:28:06;;;;;;;4.57;4.15;;;;;;;17.46;47.01;96203.56;10361344;28;97351;-69
2022/05/07 18:33:09;;;;;;;;;;;;;;;17.19;47.40;96219.97;10351861;28;96775;-69
2022/05/07 18:43:33;;;;;;;6.85;4.07;;;;;;;16.91;49.04;96229.69;10351234;28;96862;-70
2022/05/07 18:48:36;;;;;;;7.68;4.13;;;;;;;16.94;48.85;96227.47;10360588;28;99161;-71
2022/05/07 18:53:40;;;;;;;5.10;3.80;;;;;;;16.88;49.19;96237.97;10344495;28;98851;-71
2022/05/07 18:58:45;;;;;;;6.50;4.15;;;;;;;16.78;48.86;96227.72;10354154;28;99450;-71
2022/05/07 19:03:48;;;;;;;4.40;3.78;;;;;;;16.69;48.59;96236.72;10360431;28;96867;-71
2022/05/07 19:08:51;;;;;;;4.85;3.88;;;;;;;16.63;48.37;96233.81;10355593;28;103214;-71
2022/05/07 19:13:57;;;;;;;5.57;3.92;;;;;;;16.59;48.56;96248.38;10353598;28;97109;-72
2022/05/07 19:19:00;;;;;;;5.03;4.28;;;;;;;16.44;48.62;96250.22;10356295;28;97157;-71
2022/05/07 19:24:04;;;;;;;5.10;3.80;;;;;;;16.23;49.23;96272.06;10359106;28;96953;-71
2022/05/07 19:29:09;;;;;;;4.10;3.70;;;;;;;16.09;49.95;96284.22;10366815;28;97128;-71
2022/05/07 19:34:12;;;;;;;4.93;3.92;;;;;;;16.00;50.42;96287.97;10339271;28;96858;-71
2022/05/07 19:39:15;;;;;;;4.30;3.58;;;;;;;15.81;50.75;96300.66;10343786;28;96907;-71
2022/05/07 19:44:20;;;;;;;4.65;3.40;;;;;;;15.57;51.94;96298.22;10362888;28;100245;-71
2022/05/07 19:49:23;;;;;;;;;;;;;;;15.39;51.60;96306.38;10369872;28;97278;-71
2022/05/07 19:54:26;;;;;;;3.60;3.30;;;;;;;15.29;52.46;96311.91;10356910;28;98659;-71
2022/05/07 19:59:30;;;;;;;3.97;3.40;;;;;;;15.20;52.92;96313.78;10354834;28;99232;-71
2022/05/07 20:04:35;;;;;;;3.53;3.23;;;;;;;15.10;53.14;96313.19;10353327;28;98751;-74
2022/05/07 20:09:44;;;;;;;4.38;3.13;;;;;;;15.05;53.23;96326.03;10343160;28;97691;-71
2022/05/07 20:14:48;;;;;;;4.28;3.45;;;;;;;15.02;53.01;96327.19;10362751;28;97643;-73
2022/05/07 20:19:51;;;;;;;3.73;3.20;;;;;;;15.05;52.81;96329.47;10343696;28;99018;-72
2022/05/07 20:24:55;;;;;;;3.28;2.97;;;;;;;15.00;53.09;96337.06;10340146;28;96924;-71
2022/05/07 20:30:00;;;;;;;4.35;2.90;;;;;;;14.90;52.63;96333.84;10349823;28;98472;-70
2022/05/07 20:35:04;;;;;;;3.55;2.90;;;;;;;14.93;52.65;96336.13;10342949;28;98621;-70
2022/05/07 20:40:08;;;;;;;3.53;2.40;;;;;;;14.88;52.44;96333.19;10349158;28;96838;-72
2022/05/07 20:50:33;;;;;;;5.32;2.88;;;;;;;14.79;52.97;96318.44;10341851;28;96848;-71
2022/05/07 20:55:36;;;;;;;4.28;2.70;;;;;;;14.79;52.20;96311.38;10350716;28;98718;-73
2022/05/07 21:00:43;;;;;;;2.38;2.03;;;;;;;14.81;52.54;96311.22;10341568;28;98631;-71
2022/05/07 21:05:46;;;;;;;2.85;2.22;;;;;;;14.78;52.87;96301.03;10340034;28;98664;-71
2022/05/07 21:10:49;;;;;;;2.88;2.20;;;;;;;14.75;53.12;96295.13;10351185;28;96839;-71
2022/05/07 21:15:53;;;;;;;2.92;2.10;;;;;;;14.71;52.74;96288.59;10352589;28;97052;-71
2022/05/07 21:20:57;;;;;;;2.67;2.13;;;;;;;14.66;53.44;96287.44;10338470;28;97198;-71
2022/05/07 21:31:23;;;;;;;1.73;1.50;;;;;;;14.67;52.29;96284.63;10347737;28;98833;-71
2022/05/07 21:36:26;;;;;;;3.05;1.92;;;;;;;14.75;51.21;96295.13;10341860;28;96874;-71
2022/05/07 21:41:28;;;;;;;3.95;2.00;;;;;;;14.79;50.99;96273.75;10347509;28;96819;-71
2022/05/07 21:46:34;;;;;;;4.47;2.05;;;;;;;14.74;51.71;96276.88;10344702;28;96727;-71
2022/05/07 21:51:54;;;;;;;2.63;2.13;;;;;;;14.50;54.28;96259.41;10340305;28;96989;-71
2022/05/07 21:56:57;;;;;;;3.33;2.10;;;;;;;14.24;55.62;96265.72;10349296;28;97032;-71
2022/05/07 22:02:02;;;;;;;3.85;2.13;;;;;;;14.06;56.49;96275.66;10363178;28;96972;-71
2022/05/07 22:07:05;;;;;;;3.58;2.22;;;;;;;13.88;57.88;96286.34;10352729;28;98548;-71
2022/05/07 22:12:10;;;;;;;3.03;2.50;;;;;;;13.69;58.45;96295.41;10358043;28;96771;-71
2022/05/07 22:17:14;;;;;;;4.07;2.70;;;;;;;13.43;59.26;96294.63;10348482;28;99658;-71
2022/05/07 22:22:17;;;;;;;3.10;2.60;;;;;;;13.20;59.58;96299.69;10347775;28;98900;-70
2022/05/07 22:27:20;;;;;;;4.38;2.50;;;;;;;13.02;60.61;96304.25;10354651;28;98932;-70
2022/05/07 22:32:24;;;;;;;3.08;2.78;;;;;;;12.83;61.07;96311.38;10337375;28;99105;-71
2022/05/07 22:37:27;;;;;;;3.22;2.70;;;;;;;12.68;61.65;96305.94;10345206;28;97678;-71
2022/05/07 22:42:30;;;;;;;3.42;2.92;;;;;;;12.52;62.03;96310.31;10340032;28;97599;-71
2022/05/07 22:47:39;;;;;;;3.42;2.58;;;;;;;12.43;62.47;96312.88;10333085;28;100506;-70
2022/05/07 22:52:42;;;;;;;3.63;2.70;;;;;;;12.34;63.09;96311.22;10338929;28;97161;-71
2022/05/07 22:57:46;;;;;;;3.97;2.70;;;;;;;12.17;63.60;96307.69;10337163;28;98994;-70
2022/05/07 23:02:51;;;;;;;2.95;2.50;;;;;;;12.02;64.32;96309.22;10336261;28;98573;-72
2022/05/07 23:07:53;;;;;;;3.07;2.63;;;;;;;11.86;64.50;96299.50;10341880;28;98805;-72
2022/05/07 23:12:56;;;;;;;3.90;2.72;;;;;;;11.65;65.45;96303.28;10332353;28;101962;-71
2022/05/07 23:18:01;;;;;;;3.65;3.10;;;;;;;11.52;65.48;96308.09;10335217;28;100893;-70
2022/05/07 23:23:04;;;;;;;3.92;2.88;;;;;;;11.44;65.43;96305.41;10338089;28;96961;-70
2022/05/07 23:28:08;;;;;;;2.92;2.60;;;;;;;11.39;65.83;96308.47;10346928;28;99009;-71
2022/05/07 23:33:12;;;;;;;3.42;2.67;;;;;;;11.26;66.02;96311.47;10342325;28;100065;-70
2022/05/07 23:38:15;;;;;;;3.70;3.03;;;;;;;11.13;66.66;96309.19;10361161;28;96855;-76
2022/05/07 23:43:21;;;;;;;4.68;2.95;;;;;;;10.97;67.04;96302.03;10349822;28;98763;-71
2022/05/07 23:48:25;;;;;;;3.83;3.15;;;;;;;10.91;67.51;96293.94;10337567;28;96967;-70
2022/05/07 23:53:29;;;;;;;3.53;3.03;;;;;;;10.82;67.60;96295.66;10340169;28;98815;-71
2022/05/07 23:58:32;;;;;;;3.67;2.85;;;;;;;10.86;67.03;96291.81;10349595;28;97232;-70
